Time;durP1;ratioP1;P1;durP2;ratioP2;P2;SDS_P1;SDS_P2;PMS_P1;PMS_P2;Temp;Humidity;BMP_temperature;BMP_pressure;BME280_temperature;BME280_humidity;BME280_pressure;Samples;Min_cycle;Max_cycle;Signal;HPM_P1;HPM_P2
2023/08/19 00:00:22;;;;;;;6.20;4.93;;;18.10;99.90;;;;;;5052221;28;20212;-77
2023/08/19 00:02:51;;;;;;;5.57;5.03;;;18.00;99.90;;;;;;5052126;28;20207;-76
2023/08/19 00:05:20;;;;;;;7.90;5.20;;;17.90;99.90;;;;;;5052204;28;20282;-75
2023/08/19 00:07:48;;;;;;;7.27;5.47;;;17.90;99.90;;;;;;5052316;28;20208;-78
2023/08/19 00:10:16;;;;;;;6.10;5.00;;;17.90;99.90;;;;;;5051958;28;20728;-77
2023/08/19 00:12:44;;;;;;;8.40;5.70;;;17.80;99.90;;;;;;5067694;28;20276;-76
2023/08/19 00:15:12;;;;;;;6.90;5.30;;;17.80;99.90;;;;;;5071882;28;20265;-77
2023/08/19 00:17:40;;;;;;;5.50;4.90;;;17.80;99.90;;;;;;5072259;28;20261;-75
2023/08/19 00:20:11;;;;;;;5.57;5.03;;;17.70;99.90;;;;;;5054107;28;20215;-76
2023/08/19 00:22:39;;;;;;;6.13;4.97;;;17.70;99.90;;;;;;5051550;28;20209;-75
2023/08/19 00:25:09;;;;;;;6.77;5.00;;;17.70;99.90;;;;;;5051720;28;20208;-75
2023/08/19 00:27:37;;;;;;;7.67;4.93;;;17.70;99.90;;;;;;5051451;28;20659;-74
2023/08/19 00:30:06;;;;;;;5.53;5.03;;;17.60;99.90;;;;;;5051569;28;20772;-77
2023/08/19 00:32:34;;;;;;;7.10;5.03;;;17.60;99.90;;;;;;5051575;28;20223;-76
2023/08/19 00:35:03;;;;;;;6.87;5.27;;;17.50;99.90;;;;;;5051448;28;20659;-76
2023/08/19 00:37:34;;;;;;;9.90;6.50;;;17.50;99.90;;;;;;5051890;28;20262;-76
2023/08/19 00:40:04;;;;;;;6.33;5.73;;;17.40;99.90;;;;;;5051939;28;20215;-76
2023/08/19 00:42:32;;;;;;;6.20;5.10;;;17.40;99.90;;;;;;5051319;28;20201;-76
2023/08/19 00:45:00;;;;;;;9.77;5.93;;;17.40;99.90;;;;;;5051258;28;20212;-76
2023/08/19 00:47:28;;;;;;;9.50;5.67;;;17.30;99.90;;;;;;5051776;28;20204;-76
2023/08/19 00:49:57;;;;;;;6.27;5.40;;;17.30;99.90;;;;;;5051634;28;20258;-76
2023/08/19 00:52:25;;;;;;;8.50;5.40;;;17.30;99.90;;;;;;5052754;28;20234;-77
2023/08/19 00:54:55;;;;;;;7.63;5.10;;;17.30;99.90;;;;;;5055575;28;20384;-75
2023/08/19 00:57:24;;;;;;;7.27;5.40;;;17.20;99.90;;;;;;5055604;28;20212;-75
2023/08/19 00:59:53;;;;;;;6.70;5.53;;;17.20;99.90;;;;;;5055490;28;20561;-75
2023/08/19 01:02:21;;;;;;;5.90;5.30;;;17.20;99.90;;;;;;5055101;28;20712;-75
2023/08/19 01:04:50;;;;;;;9.60;5.20;;;17.20;99.90;;;;;;5055039;28;20209;-76
2023/08/19 01:07:31;;;;;;;8.47;5.40;;;17.20;99.90;;;;;;5055249;28;20224;-75
2023/08/19 01:10:05;;;;;;;7.33;5.13;;;17.20;99.90;;;;;;5060027;28;20211;-76
2023/08/19 01:12:41;;;;;;;5.70;5.00;;;17.10;99.90;;;;;;5055039;28;20204;-76
2023/08/19 01:15:14;;;;;;;6.53;5.50;;;17.10;99.90;;;;;;5054584;28;20257;-75
2023/08/19 01:17:45;;;;;;;8.73;5.70;;;17.10;99.90;;;;;;5054997;28;20204;-76
2023/08/19 01:20:15;;;;;;;8.80;5.73;;;17.10;99.90;;;;;;5054463;28;20212;-77
2023/08/19 01:22:54;;;;;;;6.00;5.40;;;17.10;99.90;;;;;;5054523;28;20193;-76
2023/08/19 01:25:25;;;;;;;6.27;5.30;;;17.20;99.90;;;;;;5054486;28;20601;-77
2023/08/19 01:27:53;;;;;;;6.07;5.47;;;17.10;99.90;;;;;;5054608;28;20208;-76
2023/08/19 01:30:23;;;;;;;5.80;5.20;;;17.10;99.90;;;;;;5054830;28;20208;-77
2023/08/19 01:32:51;;;;;;;6.13;5.20;;;17.10;99.90;;;;;;5054553;28;20219;-76
2023/08/19 01:35:19;;;;;;;7.20;5.63;;;17.00;99.90;;;;;;5054195;28;20252;-76
2023/08/19 01:37:55;;;;;;;6.27;5.67;;;17.00;99.90;;;;;;5054351;28;20208;-76
2023/08/19 01:40:25;;;;;;;6.80;6.10;;;17.00;99.90;;;;;;5054734;28;20200;-76
2023/08/19 01:42:54;;;;;;;8.23;5.80;;;16.90;99.90;;;;;;5054343;28;20208;-76
2023/08/19 01:45:23;;;;;;;7.00;6.30;;;16.90;99.90;;;;;;5053593;28;20228;-76
2023/08/19 01:47:53;;;;;;;6.10;5.50;;;16.90;99.90;;;;;;5054141;28;20244;-76
2023/08/19 01:50:21;;;;;;;6.80;5.63;;;17.00;99.90;;;;;;5054292;28;20299;-75
2023/08/19 01:52:49;;;;;;;9.63;5.60;;;16.90;99.90;;;;;;5053918;28;20238;-75
2023/08/19 01:55:18;;;;;;;6.93;6.23;;;16.90;99.90;;;;;;5053681;28;20216;-76
2023/08/19 01:57:47;;;;;;;7.37;6.10;;;16.80;99.90;;;;;;5053914;28;20240;-76
2023/08/19 02:00:16;;;;;;;7.17;5.80;;;16.80;99.90;;;;;;5054031;28;20207;-75
2023/08/19 02:02:44;;;;;;;9.17;6.80;;;16.70;99.90;;;;;;5054607;28;20212;-76
2023/08/19 02:05:14;;;;;;;7.33;6.23;;;16.70;99.90;;;;;;5053953;28;20204;-76
2023/08/19 02:07:43;;;;;;;7.30;6.60;;;16.70;99.90;;;;;;5054147;28;20277;-76
2023/08/19 02:10:12;;;;;;;9.13;7.57;;;16.70;99.90;;;;;;5072058;28;20285;-75
2023/08/19 02:12:40;;;;;;;10.73;7.40;;;16.60;99.90;;;;;;5073573;28;20214;-75
2023/08/19 02:15:10;;;;;;;9.17;7.50;;;16.60;99.90;;;;;;5062052;28;20232;-77
2023/08/19 02:17:38;;;;;;;7.60;6.80;;;16.60;99.90;;;;;;5053930;28;20204;-76
2023/08/19 02:20:07;;;;;;;8.70;7.67;;;16.60;99.90;;;;;;5053773;28;20236;-74
2023/08/19 02:22:35;;;;;;;7.87;7.07;;;16.60;99.90;;;;;;5054003;28;20212;-77
2023/08/19 02:25:04;;;;;;;7.83;7.03;;;16.60;99.90;;;;;;5053438;28;20204;-76
2023/08/19 02:27:32;;;;;;;8.57;7.00;;;16.50;99.90;;;;;;5053654;28;20265;-74
2023/08/19 02:30:01;;;;;;;8.77;7.87;;;16.40;99.90;;;;;;5053698;28;20291;-75
2023/08/19 02:32:31;;;;;;;9.17;7.97;;;16.50;99.90;;;;;;5053134;28;20643;-77
2023/08/19 02:35:01;;;;;;;10.50;9.27;;;16.50;99.90;;;;;;5053238;28;20550;-77
2023/08/19 02:37:29;;;;;;;10.80;9.00;;;16.50;99.90;;;;;;5053812;28;20196;-76
2023/08/19 02:39:58;;;;;;;11.07;9.73;;;16.50;99.90;;;;;;5053594;28;20301;-76
2023/08/19 02:42:26;;;;;;;9.83;8.83;;;16.50;99.90;;;;;;5053887;28;20297;-76
2023/08/19 02:44:54;;;;;;;9.40;8.40;;;16.40;99.90;;;;;;5053269;28;20232;-76
2023/08/19 02:47:22;;;;;;;9.57;8.53;;;16.40;99.90;;;;;;5053134;28;20274;-75
2023/08/19 02:49:52;;;;;;;8.73;7.83;;;16.40;99.90;;;;;;5053098;28;20659;-75
2023/08/19 02:52:20;;;;;;;9.03;8.13;;;16.30;99.90;;;;;;5053374;28;20262;-75
2023/08/19 02:54:48;;;;;;;8.40;7.50;;;16.30;99.90;;;;;;5052651;28;20228;-76
2023/08/19 02:57:16;;;;;;;8.73;7.83;;;16.20;99.90;;;;;;5053151;28;20219;-75
2023/08/19 02:59:45;;;;;;;8.27;7.47;;;16.20;99.90;;;;;;5052018;28;20208;-75
2023/08/19 03:02:13;;;;;;;9.30;8.33;;;16.20;99.90;;;;;;5052652;28;20212;-76
2023/08/19 03:04:41;;;;;;;9.30;8.40;;;16.20;99.90;;;;;;5051875;28;20244;-75
2023/08/19 03:07:10;;;;;;;8.77;7.83;;;16.20;99.90;;;;;;5057488;28;20223;-78
2023/08/19 03:09:38;;;;;;;10.27;9.27;;;16.20;99.90;;;;;;5073290;28;20310;-76
2023/08/19 03:12:07;;;;;;;11.90;8.50;;;16.20;99.90;;;;;;5064860;28;20247;-75
2023/08/19 03:14:36;;;;;;;8.97;8.07;;;16.10;99.90;;;;;;5052076;28;20221;-74
2023/08/19 03:17:04;;;;;;;9.60;8.10;;;16.10;99.90;;;;;;5052393;28;20262;-77
2023/08/19 03:19:32;;;;;;;9.47;8.57;;;16.10;99.90;;;;;;5052684;28;20298;-76
2023/08/19 03:22:00;;;;;;;11.33;8.60;;;16.10;99.90;;;;;;5052846;28;20295;-76
2023/08/19 03:24:29;;;;;;;10.10;9.13;;;16.00;99.90;;;;;;5052085;28;20212;-77
2023/08/19 03:26:57;;;;;;;9.80;8.57;;;16.00;99.90;;;;;;5052473;28;20231;-76
2023/08/19 03:29:26;;;;;;;8.93;8.03;;;16.00;99.90;;;;;;5052339;28;20207;-76
2023/08/19 03:31:54;;;;;;;8.50;7.70;;;15.90;99.90;;;;;;5052607;28;20227;-75
2023/08/19 03:34:23;;;;;;;11.83;8.90;;;15.90;99.90;;;;;;5053689;28;20715;-75
2023/08/19 03:36:51;;;;;;;9.60;8.60;;;15.90;99.90;;;;;;5052606;28;20220;-77
2023/08/19 03:39:19;;;;;;;9.07;8.20;;;15.80;99.90;;;;;;5052522;28;20581;-75
2023/08/19 03:41:49;;;;;;;9.47;8.47;;;15.80;99.90;;;;;;5052540;28;20215;-77
2023/08/19 03:44:17;;;;;;;8.90;8.00;;;15.80;99.90;;;;;;5051818;28;20686;-77
2023/08/19 03:46:45;;;;;;;8.90;8.00;;;15.80;99.90;;;;;;5052184;28;20216;-77
2023/08/19 03:49:13;;;;;;;9.73;8.10;;;15.80;99.90;;;;;;5051897;28;20208;-76
2023/08/19 03:51:42;;;;;;;9.93;8.77;;;15.80;99.90;;;;;;5051881;28;20658;-75
2023/08/19 03:54:10;;;;;;;10.03;9.03;;;15.80;99.90;;;;;;5071461;28;20703;-77
2023/08/19 03:56:38;;;;;;;9.50;8.43;;;15.80;99.90;;;;;;5072218;28;20284;-76
2023/08/19 03:59:07;;;;;;;10.00;9.07;;;15.70;99.90;;;;;;5072121;28;20215;-75
2023/08/19 04:01:36;;;;;;;8.97;8.17;;;15.80;99.90;;;;;;5054377;28;20651;-76
2023/08/19 04:04:04;;;;;;;9.30;8.40;;;15.70;99.90;;;;;;5051755;28;20212;-76
2023/08/19 04:06:32;;;;;;;9.17;8.07;;;15.70;99.90;;;;;;5063088;28;20231;-76
2023/08/19 04:09:00;;;;;;;8.63;7.63;;;15.70;99.90;;;;;;5070745;28;20208;-77
2023/08/19 04:11:28;;;;;;;9.30;8.40;;;15.60;99.90;;;;;;5071906;28;20292;-76
2023/08/19 04:13:56;;;;;;;8.90;8.00;;;15.60;99.90;;;;;;5071627;28;20207;-74
2023/08/19 04:16:26;;;;;;;9.53;8.50;;;15.60;99.90;;;;;;5071632;28;20701;-75
2023/08/19 04:18:54;;;;;;;8.77;7.87;;;15.50;99.90;;;;;;5054077;28;20204;-76
2023/08/19 04:21:22;;;;;;;8.63;7.60;;;15.50;99.90;;;;;;5051648;28;20261;-76
2023/08/19 04:23:51;;;;;;;8.70;7.80;;;15.50;99.90;;;;;;5051405;28;20244;-77
2023/08/19 04:26:19;;;;;;;9.43;8.37;;;15.50;99.90;;;;;;5051423;28;20674;-76
2023/08/19 04:28:47;;;;;;;10.23;9.13;;;15.40;99.90;;;;;;5075459;28;20367;-76
2023/08/19 04:31:15;;;;;;;9.67;8.40;;;15.40;99.90;;;;;;5075850;28;20273;-76
2023/08/19 04:33:45;;;;;;;9.67;8.67;;;15.40;99.90;;;;;;5075658;28;20203;-74
2023/08/19 04:36:13;;;;;;;9.57;8.53;;;15.40;99.90;;;;;;5056925;28;20228;-76
2023/08/19 04:38:42;;;;;;;10.97;8.23;;;15.40;99.90;;;;;;5055632;28;20242;-76
2023/08/19 04:41:10;;;;;;;9.03;8.10;;;15.40;99.90;;;;;;5055865;28;20208;-77
2023/08/19 04:43:38;;;;;;;9.50;8.50;;;15.50;99.90;;;;;;5057097;28;20208;-74
2023/08/19 04:46:06;;;;;;;9.03;8.23;;;15.50;99.90;;;;;;5075889;28;20207;-75
2023/08/19 04:48:34;;;;;;;10.13;9.10;;;15.50;99.90;;;;;;5075562;28;20211;-76
2023/08/19 04:51:04;;;;;;;10.27;9.30;;;15.60;99.90;;;;;;5075478;28;20207;-75
2023/08/19 04:53:32;;;;;;;9.77;8.77;;;15.70;99.90;;;;;;5064473;28;20199;-75
2023/08/19 04:56:03;;;;;;;10.20;8.63;;;15.80;99.90;;;;;;5054825;28;20224;-76
2023/08/19 04:58:32;;;;;;;8.80;7.90;;;15.90;99.90;;;;;;5055601;28;20300;-75
2023/08/19 05:01:00;;;;;;;9.70;7.77;;;15.90;99.90;;;;;;5055413;28;20208;-75
2023/08/19 05:03:28;;;;;;;9.57;8.57;;;16.00;99.90;;;;;;5055328;28;20208;-76
2023/08/19 05:05:56;;;;;;;8.97;8.13;;;16.00;99.90;;;;;;5072905;28;20277;-76
2023/08/19 05:08:26;;;;;;;8.90;7.80;;;16.00;99.90;;;;;;5074963;28;20728;-75
2023/08/19 05:10:54;;;;;;;10.60;8.27;;;16.00;99.90;;;;;;5060538;28;20204;-77
2023/08/19 05:13:22;;;;;;;7.87;7.17;;;16.10;99.90;;;;;;5055630;28;20204;-76
2023/08/19 05:15:50;;;;;;;9.03;7.80;;;16.10;99.90;;;;;;5055725;28;20227;-75
2023/08/19 05:18:18;;;;;;;7.93;6.90;;;16.20;99.90;;;;;;5056226;28;20676;-76
2023/08/19 05:20:46;;;;;;;11.63;8.17;;;16.20;99.90;;;;;;5055878;28;20212;-75
2023/08/19 05:23:14;;;;;;;8.87;6.83;;;16.30;99.90;;;;;;5055385;28;20212;-76
2023/08/19 05:25:44;;;;;;;7.73;6.73;;;16.40;99.90;;;;;;5056424;28;20273;-76
2023/08/19 05:28:12;;;;;;;7.90;6.80;;;16.40;99.90;;;;;;5056676;28;20265;-75
2023/08/19 05:30:40;;;;;;;7.27;6.20;;;16.50;99.90;;;;;;5054691;28;20216;-76
2023/08/19 05:33:09;;;;;;;8.50;6.67;;;16.50;99.90;;;;;;5054801;28;20251;-75
2023/08/19 05:35:37;;;;;;;7.10;6.00;;;16.60;99.90;;;;;;5054201;28;20760;-76
2023/08/19 05:38:06;;;;;;;9.87;6.60;;;16.60;99.90;;;;;;5054552;28;20212;-75
2023/08/19 05:40:34;;;;;;;6.77;6.07;;;16.70;99.90;;;;;;5054960;28;20267;-75
2023/08/19 05:43:03;;;;;;;8.40;6.47;;;16.70;99.90;;;;;;5054843;28;20212;-76
2023/08/19 05:45:33;;;;;;;10.00;6.13;;;16.80;99.90;;;;;;5054221;28;20235;-76
2023/08/19 05:48:02;;;;;;;6.97;5.97;;;16.90;99.90;;;;;;5054935;28;20244;-76
2023/08/19 05:50:30;;;;;;;7.53;6.20;;;17.00;99.90;;;;;;5054422;28;20251;-75
2023/08/19 05:52:59;;;;;;;8.97;5.93;;;17.10;99.90;;;;;;5061703;28;20269;-74
2023/08/19 05:55:27;;;;;;;10.20;5.90;;;17.20;99.90;;;;;;5074005;28;20227;-74
2023/08/19 05:57:55;;;;;;;7.53;5.50;;;17.40;99.90;;;;;;5074110;28;20631;-76
2023/08/19 06:00:25;;;;;;;6.50;5.50;;;17.50;99.90;;;;;;5074302;28;20289;-75
2023/08/19 06:02:53;;;;;;;9.63;5.20;;;17.70;99.90;;;;;;5060877;28;20257;-76
2023/08/19 06:05:22;;;;;;;7.33;5.00;;;17.80;99.90;;;;;;5074184;28;20319;-75
2023/08/19 06:07:50;;;;;;;6.90;5.23;;;18.00;99.90;;;;;;5074247;28;20216;-74
2023/08/19 06:10:18;;;;;;;7.00;5.27;;;18.10;99.90;;;;;;5065143;28;20211;-77
2023/08/19 06:12:47;;;;;;;6.13;4.60;;;18.20;99.90;;;;;;5054143;28;20602;-74
2023/08/19 06:15:15;;;;;;;5.83;4.33;;;18.40;99.90;;;;;;5053838;28;20208;-76
2023/08/19 06:17:44;;;;;;;10.93;4.80;;;18.80;99.90;;;;;;5054103;28;20212;-75
2023/08/19 06:20:12;;;;;;;9.03;5.10;;;19.10;99.90;;;;;;5064850;28;20204;-76
2023/08/19 06:22:40;;;;;;;5.17;4.60;;;19.40;99.90;;;;;;5074123;28;20646;-75
2023/08/19 06:25:09;;;;;;;6.37;4.40;;;19.70;99.90;;;;;;5073595;28;20208;-75
2023/08/19 06:27:37;;;;;;;5.80;4.10;;;20.10;99.90;;;;;;5067208;28;20673;-75
2023/08/19 06:30:06;;;;;;;8.27;4.20;;;20.30;99.90;;;;;;5054077;28;20208;-74
2023/08/19 06:32:35;;;;;;;7.00;4.10;;;20.60;99.90;;;;;;5053530;28;20243;-76
2023/08/19 06:35:06;;;;;;;7.13;4.77;;;20.80;99.90;;;;;;5053979;28;20216;-75
2023/08/19 06:37:40;;;;;;;7.80;4.13;;;20.90;99.90;;;;;;5073612;28;20293;-76
2023/08/19 06:40:13;;;;;;;6.13;4.10;;;21.00;99.90;;;;;;5074181;28;20207;-76
2023/08/19 06:42:44;;;;;;;9.33;4.40;;;21.20;99.90;;;;;;5073306;28;20728;-76
2023/08/19 06:45:13;;;;;;;7.90;4.10;;;21.40;99.90;;;;;;5053546;28;20286;-75
2023/08/19 06:47:45;;;;;;;7.13;4.43;;;21.60;99.90;;;;;;5053353;28;20204;-75
2023/08/19 06:50:16;;;;;;;7.67;4.50;;;21.80;99.90;;;;;;5052734;28;20247;-75
2023/08/19 06:52:44;;;;;;;7.60;4.20;;;22.20;99.90;;;;;;5053522;28;20211;-74
2023/08/19 06:55:14;;;;;;;8.37;4.50;;;22.50;99.90;;;;;;5053105;28;20208;-75
2023/08/19 06:57:47;;;;;;;5.60;4.07;;;22.80;99.90;;;;;;5053477;28;20228;-78
2023/08/19 07:00:17;;;;;;;7.00;5.10;;;23.00;99.90;;;;;;5053164;28;20208;-77
2023/08/19 07:02:47;;;;;;;10.87;4.53;;;23.50;99.90;;;;;;5062775;28;20196;-78
2023/08/19 07:05:20;;;;;;;5.83;4.00;;;23.70;99.90;;;;;;5052879;28;20212;-78
2023/08/19 07:07:51;;;;;;;6.77;4.77;;;23.70;99.90;;;;;;5052892;28;20615;-74
2023/08/19 07:10:21;;;;;;;7.50;3.93;;;23.80;99.90;;;;;;5053246;28;20273;-78
2023/08/19 07:12:49;;;;;;;7.63;4.30;;;23.80;99.90;;;;;;5053191;28;20218;-76
2023/08/19 07:15:18;;;;;;;6.10;4.20;;;23.80;99.90;;;;;;5052778;28;20208;-75
2023/08/19 07:17:49;;;;;;;8.20;4.17;;;24.00;99.90;;;;;;5052938;28;20292;-76
2023/08/19 07:20:22;;;;;;;5.90;3.90;;;24.10;99.90;;;;;;5064373;28;20645;-76
2023/08/19 07:22:53;;;;;;;6.73;4.00;;;24.60;99.90;;;;;;5072680;28;20638;-77
2023/08/19 07:25:21;;;;;;;5.87;4.03;;;25.30;99.90;;;;;;5072417;28;20211;-76
2023/08/19 07:27:50;;;;;;;8.83;4.03;;;26.20;99.90;;;;;;5072913;28;20203;-77
2023/08/19 07:30:19;;;;;;;7.03;3.73;;;27.00;99.90;;;;;;5053419;28;20212;-76
2023/08/19 07:32:48;;;;;;;6.30;4.05;;;27.80;99.90;;;;;;5052904;28;20593;-76
2023/08/19 07:35:18;;;;;;;7.10;3.60;;;28.40;99.90;;;;;;5052614;28;20620;-76
2023/08/19 07:37:46;;;;;;;6.47;3.17;;;29.50;99.00;;;;;;5061628;28;20230;-73
2023/08/19 07:40:15;;;;;;;5.45;3.10;;;30.40;94.00;;;;;;5072478;28;20212;-74
2023/08/19 07:42:43;;;;;;;6.45;3.40;;;31.80;91.30;;;;;;5072457;28;20348;-76
2023/08/19 07:45:12;;;;;;;6.07;3.40;;;32.60;83.00;;;;;;5071823;28;20204;-74
2023/08/19 07:47:40;;;;;;;6.60;3.42;;;33.60;76.60;;;;;;5053474;28;20213;-75
2023/08/19 07:50:09;;;;;;;6.47;3.35;;;34.50;69.10;;;;;;5052099;28;20671;-76
2023/08/19 07:52:39;;;;;;;7.53;3.40;;;34.10;68.80;;;;;;5051875;28;20658;-77
2023/08/19 07:55:08;;;;;;;6.38;3.33;;;34.90;64.20;;;;;;5051796;28;20239;-76
2023/08/19 07:57:38;;;;;;;5.22;3.50;;;34.50;64.60;;;;;;5052193;28;20510;-76
2023/08/19 08:00:08;;;;;;;5.32;3.58;;;34.40;61.40;;;;;;5056009;28;20205;-75
2023/08/19 08:02:36;;;;;;;4.97;3.30;;;34.70;62.30;;;;;;5072391;28;20238;-75
2023/08/19 08:05:05;;;;;;;5.45;3.70;;;35.20;63.40;;;;;;5054220;28;20291;-75
2023/08/19 08:07:34;;;;;;;6.55;3.72;;;35.30;59.40;;;;;;5051900;28;20258;-76
2023/08/19 08:10:04;;;;;;;5.25;3.50;;;35.00;59.50;;;;;;5051927;28;20219;-76
2023/08/19 08:12:32;;;;;;;4.07;3.22;;;35.40;59.60;;;;;;5051994;28;20394;-77
2023/08/19 08:15:01;;;;;;;6.03;3.53;;;35.60;58.60;;;;;;5051405;28;20212;-73
2023/08/19 08:17:29;;;;;;;4.45;3.42;;;36.00;58.50;;;;;;5051719;28;20311;-75
2023/08/19 08:19:58;;;;;;;7.00;3.67;;;34.60;62.70;;;;;;5051808;28;20211;-75
2023/08/19 08:22:26;;;;;;;5.70;3.42;;;35.40;60.00;;;;;;5051288;28;20204;-77
2023/08/19 08:24:56;;;;;;;5.43;3.42;;;36.10;58.80;;;;;;5051512;28;20215;-75
2023/08/19 08:27:26;;;;;;;5.82;3.30;;;35.00;57.60;;;;;;5051411;28;20295;-74
2023/08/19 08:29:54;;;;;;;5.93;3.42;;;35.20;60.90;;;;;;5051880;28;20220;-75
2023/08/19 08:32:22;;;;;;;4.90;3.30;;;35.90;58.60;;;;;;5052030;28;20215;-73
2023/08/19 08:34:51;;;;;;;5.15;3.10;;;36.00;55.80;;;;;;5051433;28;20215;-74
2023/08/19 08:37:19;;;;;;;4.55;3.22;;;36.90;53.70;;;;;;5051543;28;20285;-76
2023/08/19 08:39:47;;;;;;;5.35;3.20;;;37.60;52.50;;;;;;5051365;28;20383;-75
2023/08/19 08:42:16;;;;;;;4.07;3.13;;;36.40;54.00;;;;;;5051676;28;20216;-74
2023/08/19 08:44:47;;;;;;;4.80;3.22;;;36.40;53.40;;;;;;5071530;28;20210;-76
2023/08/19 08:47:16;;;;;;;4.50;3.15;;;36.90;53.10;;;;;;5070064;28;20188;-76
2023/08/19 08:49:47;;;;;;;5.15;3.38;;;36.40;54.80;;;;;;5071253;28;20261;-76
2023/08/19 08:52:16;;;;;;;6.53;3.35;;;37.10;52.50;;;;;;5071831;28;20226;-73
2023/08/19 08:54:46;;;;;;;5.82;3.22;;;36.10;50.80;;;;;;5071362;28;20269;-75
2023/08/19 08:57:16;;;;;;;5.55;3.67;;;37.00;50.70;;;;;;5051854;28;20808;-75
2023/08/19 08:59:46;;;;;;;5.13;3.30;;;36.60;51.10;;;;;;5064289;28;20215;-74
2023/08/19 09:02:16;;;;;;;6.68;3.70;;;36.80;54.00;;;;;;5070777;28;20211;-74
2023/08/19 09:04:45;;;;;;;3.60;3.05;;;36.50;52.40;;;;;;5056380;28;20212;-75
2023/08/19 09:07:20;;;;;;;3.90;3.17;;;35.80;52.10;;;;;;5051050;28;20690;-76
2023/08/19 09:09:51;;;;;;;6.88;3.17;;;37.00;51.70;;;;;;5051771;28;20261;-76
2023/08/19 09:12:22;;;;;;;5.47;3.38;;;36.40;53.50;;;;;;5051105;28;20204;-74
2023/08/19 09:14:57;;;;;;;4.32;3.22;;;36.40;54.40;;;;;;5054974;28;20208;-74
2023/08/19 09:17:25;;;;;;;5.22;3.40;;;36.30;53.40;;;;;;5054870;28;20277;-74
2023/08/19 09:19:53;;;;;;;6.38;3.50;;;36.90;54.70;;;;;;5055096;28;20262;-73
2023/08/19 09:22:23;;;;;;;6.65;3.42;;;36.50;49.20;;;;;;5069270;28;20215;-76
2023/08/19 09:24:53;;;;;;;7.35;4.05;;;36.20;51.40;;;;;;5074809;28;20211;-75
2023/08/19 09:27:28;;;;;;;6.78;3.72;;;36.20;51.40;;;;;;5074683;28;20200;-75
2023/08/19 09:29:59;;;;;;;5.00;3.75;;;36.50;50.50;;;;;;5074569;28;20207;-75
2023/08/19 09:32:31;;;;;;;6.18;3.47;;;37.30;52.60;;;;;;5054799;28;20220;-75
2023/08/19 09:35:05;;;;;;;4.50;3.65;;;36.90;50.30;;;;;;5054323;28;20212;-73
2023/08/19 09:37:34;;;;;;;5.35;3.83;;;36.30;50.00;;;;;;5054476;28;20224;-76
2023/08/19 09:40:07;;;;;;;5.82;3.60;;;36.80;50.10;;;;;;5064417;28;20216;-76
2023/08/19 09:42:36;;;;;;;4.00;3.45;;;36.30;51.20;;;;;;5074606;28;20214;-75
2023/08/19 09:45:07;;;;;;;7.45;3.58;;;36.70;50.40;;;;;;5074189;28;20211;-76
2023/08/19 09:47:47;;;;;;;4.97;3.65;;;36.10;50.40;;;;;;5072839;28;20665;-76
2023/08/19 09:50:19;;;;;;;5.80;3.92;;;36.50;51.10;;;;;;5054098;28;20646;-75
2023/08/19 09:52:55;;;;;;;5.40;3.60;;;36.60;50.40;;;;;;5054376;28;20208;-76
2023/08/19 09:55:24;;;;;;;5.90;3.80;;;36.70;50.60;;;;;;5054226;28;20204;-75
2023/08/19 09:57:53;;;;;;;7.57;3.30;;;37.10;50.50;;;;;;5058445;28;20240;-74
2023/08/19 10:00:23;;;;;;;5.65;3.30;;;37.20;51.10;;;;;;5054572;28;20204;-75
2023/08/19 10:02:52;;;;;;;5.72;3.47;;;37.00;51.80;;;;;;5054376;28;20306;-74
2023/08/19 10:05:20;;;;;;;4.70;3.08;;;37.60;48.50;;;;;;5053665;28;20636;-75
2023/08/19 10:07:53;;;;;;;6.30;3.40;;;37.20;50.60;;;;;;5067863;28;20215;-76
2023/08/19 10:10:23;;;;;;;5.35;3.42;;;38.20;49.40;;;;;;5074137;28;20211;-76
2023/08/19 10:12:52;;;;;;;7.00;3.63;;;38.40;49.70;;;;;;5074282;28;20192;-75
2023/08/19 10:15:23;;;;;;;6.63;3.42;;;37.90;50.30;;;;;;5071618;28;20269;-74
2023/08/19 10:17:55;;;;;;;4.70;3.33;;;37.60;50.30;;;;;;5054156;28;20239;-76
2023/08/19 10:20:26;;;;;;;6.05;3.28;;;37.50;48.20;;;;;;5053998;28;20267;-76
2023/08/19 10:22:59;;;;;;;6.85;3.60;;;36.90;50.90;;;;;;5053890;28;20227;-75
2023/08/19 10:25:30;;;;;;;4.55;3.47;;;37.50;50.40;;;;;;5052520;28;20205;-76
2023/08/19 10:28:11;;;;;;;5.63;3.70;;;37.60;48.00;;;;;;5054413;28;20215;-77
2023/08/19 10:30:41;;;;;;;5.63;3.28;;;37.20;49.00;;;;;;5053582;28;20208;-77
2023/08/19 10:33:29;;;;;;;5.55;3.15;;;37.90;47.10;;;;;;5053819;28;20303;-74
2023/08/19 10:35:58;;;;;;;6.78;3.10;;;38.70;43.80;;;;;;5053636;28;20215;-76
2023/08/19 10:38:41;;;;;;;4.32;3.30;;;38.70;43.30;;;;;;5053361;28;20235;-75
2023/08/19 10:41:25;;;;;;;5.68;3.13;;;37.90;45.00;;;;;;5053465;28;20258;-76
2023/08/19 10:43:58;;;;;;;6.20;3.50;;;38.00;42.90;;;;;;5053574;28;20208;-76
2023/08/19 10:46:33;;;;;;;6.18;3.03;;;37.40;43.30;;;;;;5053673;28;20585;-77
2023/08/19 10:49:03;;;;;;;5.00;3.00;;;37.40;43.00;;;;;;5053705;28;20208;-76
2023/08/19 10:51:54;;;;;;;4.43;3.00;;;37.50;42.60;;;;;;5053523;28;20666;-77
2023/08/19 10:54:27;;;;;;;4.93;3.30;;;36.90;45.20;;;;;;5053056;28;20202;-76
2023/08/19 10:57:08;;;;;;;7.25;3.30;;;36.90;43.00;;;;;;5066271;28;20290;-75
2023/08/19 10:59:37;;;;;;;5.30;3.47;;;37.00;47.00;;;;;;5053286;28;20224;-76
2023/08/19 11:02:08;;;;;;;4.63;3.30;;;37.00;45.80;;;;;;5053609;28;20362;-75
2023/08/19 11:04:41;;;;;;;4.22;3.13;;;36.40;46.20;;;;;;5052831;28;20244;-74
2023/08/19 11:07:09;;;;;;;8.75;3.05;;;36.40;48.20;;;;;;5052788;28;20228;-76
2023/08/19 11:09:39;;;;;;;6.55;3.40;;;36.60;49.20;;;;;;5053100;28;20208;-75
2023/08/19 11:12:08;;;;;;;9.77;3.90;;;36.30;48.30;;;;;;5053287;28;20216;-76
2023/08/19 11:14:37;;;;;;;6.75;3.15;;;35.60;48.10;;;;;;5052780;28;20274;-77
2023/08/19 11:17:07;;;;;;;5.18;3.22;;;35.10;50.20;;;;;;5053885;28;20698;-78
2023/08/19 11:19:35;;;;;;;6.63;3.60;;;34.70;53.50;;;;;;5055481;28;20282;-77
2023/08/19 11:22:04;;;;;;;6.55;3.47;;;34.80;52.70;;;;;;5058164;28;20208;-77
2023/08/19 11:24:33;;;;;;;5.55;3.50;;;34.80;49.70;;;;;;5061695;28;20216;-78
2023/08/19 11:27:02;;;;;;;6.60;3.50;;;34.80;48.80;;;;;;5061055;28;20556;-76
2023/08/19 11:29:30;;;;;;;5.65;3.47;;;35.10;50.70;;;;;;5060299;28;20209;-77
2023/08/19 11:32:00;;;;;;;5.50;3.30;;;34.80;51.30;;;;;;5065315;28;20215;-76
2023/08/19 11:34:30;;;;;;;7.07;3.38;;;34.40;49.70;;;;;;5065679;28;20204;-76
2023/08/19 11:36:58;;;;;;;9.68;3.55;;;34.20;53.00;;;;;;5062194;28;20211;-76
2023/08/19 11:39:32;;;;;;;7.45;3.13;;;34.10;50.40;;;;;;5063933;28;20232;-77
2023/08/19 11:42:01;;;;;;;7.10;3.63;;;34.20;53.80;;;;;;5068584;28;20223;-76
2023/08/19 11:44:29;;;;;;;5.75;3.05;;;33.90;49.70;;;;;;5068640;28;20208;-76
2023/08/19 11:46:57;;;;;;;4.38;3.08;;;34.00;51.30;;;;;;5056536;28;20208;-76
2023/08/19 11:49:31;;;;;;;6.28;3.35;;;33.50;49.80;;;;;;5056320;28;20246;-75
2023/08/19 11:51:59;;;;;;;4.60;3.00;;;33.60;53.40;;;;;;5055279;28;20556;-75
2023/08/19 11:54:28;;;;;;;5.45;3.22;;;33.40;56.60;;;;;;5058013;28;20599;-76
2023/08/19 11:56:59;;;;;;;5.05;3.17;;;33.40;50.00;;;;;;5074766;28;20203;-77
2023/08/19 11:59:31;;;;;;;5.60;3.15;;;33.40;49.80;;;;;;5076704;28;20739;-75
2023/08/19 12:02:03;;;;;;;8.60;3.38;;;33.50;49.40;;;;;;5066073;28;20235;-74
2023/08/19 12:04:34;;;;;;;6.93;2.97;;;33.60;53.10;;;;;;5052467;28;20674;-76
2023/08/19 12:07:04;;;;;;;6.80;3.40;;;33.60;50.80;;;;;;5054288;28;20231;-78
2023/08/19 12:09:32;;;;;;;5.18;3.03;;;33.50;51.60;;;;;;5056930;28;20692;-74
2023/08/19 12:12:09;;;;;;;9.07;3.40;;;33.20;48.10;;;;;;5066015;28;20218;-74
2023/08/19 12:14:39;;;;;;;9.93;3.33;;;33.20;48.70;;;;;;5073774;28;20217;-77
2023/08/19 12:17:07;;;;;;;5.55;3.17;;;33.10;48.20;;;;;;5073582;28;20211;-78
2023/08/19 12:19:37;;;;;;;5.57;2.85;;;33.40;51.10;;;;;;5068407;28;20220;-77
2023/08/19 12:22:06;;;;;;;6.40;3.33;;;33.50;47.50;;;;;;5053439;28;20212;-77
2023/08/19 12:24:34;;;;;;;7.93;3.20;;;33.10;47.70;;;;;;5054190;28;20216;-78
2023/08/19 12:27:02;;;;;;;8.10;3.20;;;33.00;50.60;;;;;;5052383;28;20216;-77
2023/08/19 12:29:30;;;;;;;7.93;3.05;;;33.00;50.30;;;;;;5052477;28;20209;-77
2023/08/19 12:31:58;;;;;;;4.90;3.10;;;33.30;50.10;;;;;;5052677;28;20212;-76
2023/08/19 12:34:27;;;;;;;4.60;2.92;;;33.40;51.30;;;;;;5052785;28;20218;-77
2023/08/19 12:36:56;;;;;;;7.07;2.72;;;33.70;48.60;;;;;;5063861;28;20214;-77
2023/08/19 12:39:26;;;;;;;6.35;2.90;;;33.40;47.40;;;;;;5071866;28;20224;-76
2023/08/19 12:41:56;;;;;;;5.22;2.88;;;33.20;48.70;;;;;;5072612;28;20214;-75
2023/08/19 12:44:25;;;;;;;5.57;3.20;;;33.30;50.60;;;;;;5071828;28;20211;-78
2023/08/19 12:46:53;;;;;;;5.05;2.97;;;33.20;50.90;;;;;;5072093;28;20213;-73
2023/08/19 12:49:21;;;;;;;6.00;3.17;;;32.80;50.70;;;;;;5080299;28;20203;-75
2023/08/19 12:51:50;;;;;;;6.10;3.15;;;32.90;52.90;;;;;;5078516;28;20666;-76
2023/08/19 12:54:19;;;;;;;6.45;3.05;;;32.70;51.10;;;;;;5073437;28;20670;-77
2023/08/19 12:56:47;;;;;;;7.13;3.20;;;32.80;51.10;;;;;;5056239;28;20563;-78